Time;durP1;ratioP1;P1;durP2;ratioP2;P2;SDS_P1;SDS_P2;PMS_P1;PMS_P2;Temp;Humidity;BMP_temperature;BMP_pressure;BME280_temperature;BME280_humidity;BME280_pressure;Samples;Min_cycle;Max_cycle;Signal;HPM_P1;HPM_P2
2022/11/06 00:00:01;;;;;;;3.20;2.90;;;;;;;9.38;76.67;101440.22;6071260;29;20232;-72
2022/11/06 00:03:22;;;;;;;8.30;3.23;;;;;;;9.37;76.52;101443.84;6058436;29;20236;-73
2022/11/06 00:06:49;;;;;;;4.80;3.30;;;;;;;9.36;76.54;101454.75;6062268;29;20315;-71
2022/11/06 00:10:11;;;;;;;2.27;1.70;;;;;;;9.40;76.69;101442.78;6050736;29;20232;-72
2022/11/06 00:13:32;;;;;;;2.50;1.97;;;;;;;9.47;76.48;101446.75;6039171;29;20228;-72
2022/11/06 00:16:53;;;;;;;2.83;1.93;;;;;;;9.46;76.58;101443.19;6048137;29;20358;-73
2022/11/06 00:20:13;;;;;;;4.07;2.60;;;;;;;9.38;76.64;101442.03;6010961;29;20631;-71
2022/11/06 00:23:34;;;;;;;1.97;1.87;;;;;;;9.45;76.16;101438.75;6030508;29;20224;-72
2022/11/06 00:26:57;;;;;;;2.67;2.33;;;;;;;9.46;76.30;101427.03;6048655;29;20746;-73
2022/11/06 00:30:19;;;;;;;3.87;2.43;;;;;;;9.44;76.57;101429.00;6038828;29;21614;-71
2022/11/06 00:33:40;;;;;;;3.23;1.73;;;;;;;9.40;76.30;101427.50;6050725;29;20319;-71
2022/11/06 00:37:01;;;;;;;2.53;2.33;;;;;;;9.48;76.17;101424.22;6069613;29;20228;-71
2022/11/06 00:40:23;;;;;;;2.87;1.90;;;;;;;9.44;76.08;101423.59;6073196;29;20228;-71
2022/11/06 00:43:50;;;;;;;4.17;2.83;;;;;;;9.41;76.46;101413.06;6063726;29;20220;-72
2022/11/06 00:47:11;;;;;;;2.27;1.87;;;;;;;9.49;76.23;101418.72;6082445;29;20241;-73
2022/11/06 00:50:33;;;;;;;2.60;2.17;;;;;;;9.44;76.82;101425.44;6072214;29;20232;-71
2022/11/06 00:53:54;;;;;;;2.73;2.53;;;;;;;9.43;76.83;101423.69;6066781;29;20601;-71
2022/11/06 00:57:15;;;;;;;4.27;2.57;;;;;;;9.46;76.84;101408.19;6084798;29;20229;-72
2022/11/06 01:00:38;;;;;;;2.43;2.23;;;;;;;9.40;76.87;101411.34;6048180;29;20240;-72
2022/11/06 01:04:01;;;;;;;2.60;1.83;;;;;;;9.42;77.11;101411.22;6068008;29;20236;-72
2022/11/06 01:07:22;;;;;;;3.53;1.80;;;;;;;9.45;77.18;101408.31;6089172;29;20264;-72
2022/11/06 01:10:43;;;;;;;4.77;1.60;;;;;;;9.43;77.01;101405.72;6088522;29;20596;-72
2022/11/06 01:14:05;;;;;;;5.07;2.90;;;;;;;9.45;77.28;101403.78;6077670;29;20542;-71
2022/11/06 01:17:28;;;;;;;2.17;1.77;;;;;;;9.39;77.64;101396.16;6081968;29;20240;-71
2022/11/06 01:20:48;;;;;;;1.73;1.63;;;;;;;9.34;77.44;101390.28;6077876;29;20561;-71
2022/11/06 01:24:12;;;;;;;2.37;2.17;;;;;;;9.38;77.41;101388.22;6066440;29;20229;-72
2022/11/06 01:27:33;;;;;;;2.90;1.70;;;;;;;9.36;77.59;101395.56;6084485;29;20650;-74
2022/11/06 01:30:55;;;;;;;4.07;2.07;;;;;;;9.35;77.59;101400.06;6080870;29;20232;-74
2022/11/06 01:34:18;;;;;;;5.70;2.23;;;;;;;9.37;77.14;101395.44;6078404;29;20569;-74
2022/11/06 01:37:39;;;;;;;8.27;2.33;;;;;;;9.38;77.74;101394.47;6068462;29;20233;-74
2022/11/06 01:41:00;;;;;;;4.77;2.20;;;;;;;9.33;77.72;101385.88;6083275;29;20259;-72
2022/11/06 01:45:10;;;;;;;2.77;1.90;;;;;;;9.37;77.57;101376.59;6073197;29;20503;-71
2022/11/06 01:48:30;;;;;;;2.10;1.90;;;;;;;9.36;77.42;101368.66;5986668;29;20689;-74
2022/11/06 01:51:55;;;;;;;3.43;2.13;;;;;;;9.40;77.47;101353.97;6067503;29;20237;-75
2022/11/06 01:55:21;;;;;;;2.13;2.03;;;;;;;9.38;77.66;101366.69;6068009;29;20228;-73
2022/11/06 01:58:44;;;;;;;7.53;2.10;;;;;;;9.33;77.57;101368.88;6072193;29;21068;-75
2022/11/06 02:02:07;;;;;;;3.40;2.83;;;;;;;9.35;77.77;101348.94;6076057;29;20541;-74
2022/11/06 02:05:28;;;;;;;3.40;1.90;;;;;;;9.39;77.65;101352.25;6074783;29;20236;-74
2022/11/06 02:08:51;;;;;;;1.80;1.50;;;;;;;9.37;77.44;101349.69;6070164;29;20240;-74
2022/11/06 02:12:20;;;;;;;6.10;2.10;;;;;;;9.37;77.38;101344.31;6082864;29;20239;-76
2022/11/06 02:15:48;;;;;;;1.93;1.63;;;;;;;9.48;77.26;101348.88;6081739;29;20228;-73
2022/11/06 02:19:30;;;;;;;1.60;1.50;;;;;;;9.40;77.52;101341.41;6074393;29;20323;-74
2022/11/06 02:23:18;;;;;;;3.43;1.60;;;;;;;9.39;77.57;101336.09;6074741;29;20232;-75
2022/11/06 02:27:01;;;;;;;1.80;1.70;;;;;;;9.34;77.71;101328.41;6084219;29;20347;-74
2022/11/06 02:30:21;;;;;;;2.77;2.30;;;;;;;9.41;77.78;101335.03;6066318;29;20220;-74
2022/11/06 02:33:47;;;;;;;2.27;1.73;;;;;;;9.42;77.42;101325.13;6073638;29;20510;-75
2022/11/06 02:37:11;;;;;;;2.83;1.57;;;;;;;9.31;77.96;101323.25;6069498;29;20270;-73
2022/11/06 02:40:36;;;;;;;3.80;1.30;;;;;;;9.41;77.81;101320.69;6071572;29;20228;-73
2022/11/06 02:43:59;;;;;;;2.30;2.10;;;;;;;9.40;77.90;101316.31;6069246;29;21223;-76
2022/11/06 02:47:23;;;;;;;2.37;1.80;;;;;;;9.39;77.86;101320.84;6072491;29;20573;-74
2022/11/06 02:50:48;;;;;;;4.73;2.13;;;;;;;9.35;77.76;101313.97;6069174;29;20230;-75
2022/11/06 02:54:10;;;;;;;4.10;2.33;;;;;;;9.40;78.13;101317.19;6063185;29;20229;-74
2022/11/06 02:57:37;;;;;;;2.30;2.10;;;;;;;9.39;77.81;101309.19;6057888;29;20229;-75
2022/11/06 03:01:03;;;;;;;3.57;2.03;;;;;;;9.45;77.49;101306.06;6071439;29;20233;-74
2022/11/06 03:04:30;;;;;;;5.77;2.57;;;;;;;9.43;77.70;101303.47;6061773;29;20873;-73
2022/11/06 03:07:56;;;;;;;2.30;2.00;;;;;;;9.45;77.51;101306.91;6065328;29;20225;-71
2022/11/06 03:11:22;;;;;;;3.33;1.90;;;;;;;9.36;78.01;101291.50;6072194;29;20366;-72
2022/11/06 03:14:52;;;;;;;2.93;2.67;;;;;;;9.36;78.92;101302.25;6066048;29;20236;-72
2022/11/06 03:18:19;;;;;;;5.00;2.50;;;;;;;9.28;78.93;101284.97;6059764;29;20231;-73
2022/11/06 03:21:52;;;;;;;2.40;2.20;;;;;;;9.38;79.09;101286.84;6074017;29;20237;-73
2022/11/06 03:25:20;;;;;;;2.20;2.00;;;;;;;9.43;78.90;101286.47;6058690;29;20228;-72
2022/11/06 03:28:49;;;;;;;3.27;2.73;;;;;;;9.35;78.81;101281.69;6060895;29;20240;-73
2022/11/06 03:32:15;;;;;;;1.87;1.67;;;;;;;9.33;79.27;101289.00;6063555;29;20819;-75
2022/11/06 03:35:42;;;;;;;2.37;2.17;;;;;;;9.32;79.60;101284.63;6064494;29;20237;-75
2022/11/06 03:39:07;;;;;;;2.60;1.90;;;;;;;9.33;79.09;101285.47;6059795;29;20260;-76
2022/11/06 03:42:30;;;;;;;2.60;1.57;;;;;;;9.39;78.88;101272.41;6074125;29;20253;-75
2022/11/06 03:45:53;;;;;;;2.70;1.67;;;;;;;9.37;79.08;101270.78;6072685;29;20282;-73
2022/11/06 03:49:22;;;;;;;2.63;1.87;;;;;;;9.40;78.74;101268.75;6059241;29;20290;-73
2022/11/06 03:52:52;;;;;;;3.80;2.20;;;;;;;9.42;78.28;101266.78;6060146;29;20229;-72
2022/11/06 03:56:18;;;;;;;2.77;2.17;;;;;;;9.44;78.13;101270.22;6068058;29;20228;-74
2022/11/06 03:59:44;;;;;;;2.63;2.43;;;;;;;9.46;78.20;101275.47;6058100;29;20514;-75
2022/11/06 04:03:13;;;;;;;3.07;2.37;;;;;;;9.42;78.49;101256.03;6058986;29;20256;-75
2022/11/06 04:06:40;;;;;;;2.63;1.67;;;;;;;9.45;78.34;101260.31;6069870;29;20236;-75
2022/11/06 04:13:57;;;;;;;1.57;1.23;;;;;;;9.47;78.41;101269.13;6064458;29;20228;-74
2022/11/06 04:17:20;;;;;;;2.93;2.30;;;;;;;9.47;78.02;101261.88;6073582;29;20236;-74
2022/11/06 04:28:35;;;;;;;4.00;2.83;;;;;;;9.33;79.90;101274.69;6042284;29;20248;-75
2022/11/06 04:32:08;;;;;;;3.00;2.33;;;;;;;9.33;80.47;101270.19;6067530;29;20243;-72
2022/11/06 04:35:37;;;;;;;1.93;1.67;;;;;;;9.33;80.34;101272.00;6059512;29;20236;-74
2022/11/06 04:39:05;;;;;;;4.97;2.07;;;;;;;9.34;80.21;101260.28;6060906;29;20236;-75
2022/11/06 04:42:32;;;;;;;2.77;2.20;;;;;;;9.35;79.60;101268.22;6080477;29;20235;-74
2022/11/06 04:45:59;;;;;;;2.20;1.80;;;;;;;9.34;79.94;101265.66;6075543;29;20228;-73
2022/11/06 04:49:21;;;;;;;2.00;1.80;;;;;;;9.29;79.74;101257.94;6063914;29;20244;-75
2022/11/06 04:52:44;;;;;;;2.03;1.83;;;;;;;9.32;80.00;101257.72;6070619;29;20216;-74
2022/11/06 04:56:09;;;;;;;2.63;1.43;;;;;;;9.32;79.99;101252.34;6072755;29;20249;-78
2022/11/06 04:59:34;;;;;;;4.33;1.67;;;;;;;9.30;79.58;101261.50;6068617;29;20252;-75
2022/11/06 05:02:56;;;;;;;2.03;1.83;;;;;;;9.32;79.24;101255.03;6063544;29;20608;-73
2022/11/06 05:06:17;;;;;;;4.63;2.03;;;;;;;9.27;79.17;101254.53;6076000;29;20322;-73
2022/11/06 05:09:38;;;;;;;2.37;1.50;;;;;;;9.25;79.84;101258.31;6065589;29;20566;-72
2022/11/06 05:12:59;;;;;;;1.70;1.60;;;;;;;9.29;79.91;101239.13;6067625;29;20233;-73
2022/11/06 05:16:20;;;;;;;3.03;2.80;;;;;;;9.26;79.34;101257.34;6076812;29;20236;-72
2022/11/06 05:19:42;;;;;;;3.37;2.10;;;;;;;9.33;79.16;101266.63;6061040;29;20232;-73
2022/11/06 05:23:03;;;;;;;3.20;1.87;;;;;;;9.31;78.83;101261.38;6063578;29;20228;-75
2022/11/06 05:26:24;;;;;;;2.00;1.80;;;;;;;9.28;78.72;101245.47;6061564;29;20618;-73
2022/11/06 05:29:46;;;;;;;1.87;1.77;;;;;;;9.35;78.18;101244.03;6060489;29;20228;-72
2022/11/06 05:33:07;;;;;;;6.87;2.37;;;;;;;9.37;78.38;101250.13;6063758;29;20320;-72
2022/11/06 05:36:29;;;;;;;1.80;1.70;;;;;;;9.34;78.45;101260.28;6076289;29;20240;-72
2022/11/06 05:39:50;;;;;;;3.60;2.30;;;;;;;9.30;78.01;101261.50;6064195;29;20367;-73
2022/11/06 05:43:11;;;;;;;1.60;1.50;;;;;;;9.28;77.99;101244.63;6065979;29;20287;-72
2022/11/06 05:46:32;;;;;;;2.53;2.33;;;;;;;9.27;77.59;101256.34;6076035;29;20816;-74
2022/11/06 05:49:53;;;;;;;4.33;2.03;;;;;;;9.25;78.09;101255.59;6062058;29;20232;-76
2022/11/06 05:53:15;;;;;;;2.77;2.57;;;;;;;9.23;78.49;101253.03;6065038;29;20251;-72
2022/11/06 05:56:36;;;;;;;2.40;2.00;;;;;;;9.25;77.92;101250.22;6074974;29;20240;-72
2022/11/06 05:59:57;;;;;;;5.60;2.63;;;;;;;9.22;78.19;101247.78;6055147;29;20321;-73
2022/11/06 06:03:20;;;;;;;1.40;1.30;;;;;;;9.22;78.00;101248.63;6061738;29;20584;-74
2022/11/06 06:06:41;;;;;;;7.77;2.23;;;;;;;9.23;77.78;101242.28;6074652;29;20323;-72
2022/11/06 06:10:04;;;;;;;3.63;1.40;;;;;;;9.21;77.92;101263.06;6060140;29;20236;-73
2022/11/06 06:13:24;;;;;;;2.23;1.50;;;;;;;9.23;77.85;101244.09;6060250;29;20327;-73
2022/11/06 06:16:45;;;;;;;2.10;1.90;;;;;;;9.25;77.75;101253.78;6080108;29;20240;-73
2022/11/06 06:20:08;;;;;;;1.67;1.43;;;;;;;9.26;77.76;101260.88;6066435;29;20236;-77
2022/11/06 06:23:28;;;;;;;4.90;2.37;;;;;;;9.25;78.04;101253.78;6057650;29;20311;-74
2022/11/06 06:26:50;;;;;;;2.47;1.37;;;;;;;9.25;77.53;101261.84;6074135;29;20229;-74
2022/11/06 06:30:12;;;;;;;8.77;2.40;;;;;;;9.28;77.98;101258.91;6055460;29;21799;-73
2022/11/06 06:33:33;;;;;;;3.00;1.67;;;;;;;9.25;77.86;101253.78;6062965;29;20315;-73
2022/11/06 06:36:54;;;;;;;4.70;1.37;;;;;;;9.24;77.49;101251.22;6071624;29;20446;-74
2022/11/06 06:40:15;;;;;;;2.67;1.57;;;;;;;9.27;77.39;101261.72;6068997;29;20823;-70
2022/11/06 06:43:37;;;;;;;1.53;1.43;;;;;;;9.24;78.01;101254.75;6071746;29;20232;-71
2022/11/06 06:46:58;;;;;;;4.07;2.23;;;;;;;9.26;78.08;101244.72;6076934;29;20439;-74
2022/11/06 06:50:19;;;;;;;3.10;2.50;;;;;;;9.28;78.01;101250.00;6065677;29;20241;-71
2022/11/06 06:53:40;;;;;;;1.17;1.07;;;;;;;9.26;77.88;101249.28;6020424;29;20358;-74
2022/11/06 06:57:01;;;;;;;2.70;2.50;;;;;;;9.26;77.74;101254.66;6070747;29;20256;-72
2022/11/06 07:00:23;;;;;;;1.47;1.37;;;;;;;9.26;78.00;101270.78;6063905;29;21762;-73
2022/11/06 07:03:44;;;;;;;5.97;2.40;;;;;;;9.24;77.58;101257.44;6063559;29;20240;-71
2022/11/06 07:07:05;;;;;;;7.13;1.40;;;;;;;9.28;77.65;101252.69;6084906;29;20233;-72
2022/11/06 07:10:26;;;;;;;3.40;3.20;;;;;;;9.29;77.49;101255.25;6070463;29;20259;-72
2022/11/06 07:13:47;;;;;;;1.43;1.33;;;;;;;9.33;77.24;101251.34;6068283;29;20240;-73
2022/11/06 07:17:09;;;;;;;2.17;1.93;;;;;;;9.33;77.68;101255.88;6076327;29;20236;-72
2022/11/06 07:20:30;;;;;;;1.77;1.63;;;;;;;9.36;77.31;101244.88;6064690;29;20322;-72
2022/11/06 07:23:50;;;;;;;1.70;1.60;;;;;;;9.39;77.05;101250.88;6064849;29;20276;-72
2022/11/06 07:27:12;;;;;;;2.80;1.83;;;;;;;9.45;77.15;101245.00;6063253;29;20237;-74
2022/11/06 07:30:34;;;;;;;2.50;2.30;;;;;;;9.45;77.25;101252.25;6058866;29;20256;-74
2022/11/06 07:33:56;;;;;;;2.43;2.33;;;;;;;9.46;77.24;101251.25;6064711;29;20229;-73
2022/11/06 07:37:17;;;;;;;2.20;1.63;;;;;;;9.51;76.88;101247.22;6075750;29;20244;-72
2022/11/06 07:40:38;;;;;;;2.10;1.93;;;;;;;9.56;76.58;101244.16;6068450;29;20981;-72
2022/11/06 07:44:01;;;;;;;1.30;1.30;;;;;;;9.59;76.62;101247.50;6067495;29;20232;-75
2022/11/06 07:47:21;;;;;;;1.73;1.53;;;;;;;9.61;76.13;101242.84;6071814;29;20248;-75
2022/11/06 07:50:44;;;;;;;1.30;1.20;;;;;;;9.60;76.44;101243.81;6074283;29;20253;-76
2022/11/06 07:54:05;;;;;;;1.10;1.00;;;;;;;9.68;76.12;101249.44;6059581;29;20240;-74
2022/11/06 07:57:26;;;;;;;1.43;1.30;;;;;;;9.74;75.95;101240.03;6071527;29;20229;-82
2022/11/06 08:00:48;;;;;;;1.33;1.23;;;;;;;9.82;75.63;101248.38;6074631;29;20303;-82
2022/11/06 08:04:09;;;;;;;2.43;1.50;;;;;;;9.80;75.90;101247.63;6067892;29;20233;-79
2022/11/06 08:07:32;;;;;;;2.33;1.63;;;;;;;9.78;75.65;101262.19;6083322;29;20224;-78
2022/11/06 08:10:53;;;;;;;3.40;1.53;;;;;;;9.85;76.03;101245.41;6068284;29;20236;-79
2022/11/06 08:14:14;;;;;;;4.73;2.07;;;;;;;9.88;76.14;101250.56;6073127;29;20656;-78
2022/11/06 08:17:36;;;;;;;2.30;1.17;;;;;;;9.88;76.36;101247.00;6060529;29;20233;-79
2022/11/06 08:20:57;;;;;;;1.50;1.40;;;;;;;10.04;75.96;101240.25;6080914;29;20274;-77
2022/11/06 08:24:19;;;;;;;2.00;1.90;;;;;;;10.02;75.58;101236.84;6070755;29;20232;-74
2022/11/06 08:27:40;;;;;;;1.50;1.03;;;;;;;10.09;75.26;101230.00;6074656;29;20251;-81
2022/11/06 08:31:04;;;;;;;2.43;1.27;;;;;;;10.05;75.35;101220.44;6068282;29;20237;-81
2022/11/06 08:34:25;;;;;;;2.00;1.20;;;;;;;10.06;75.54;101223.97;6075793;29;20228;-79
2022/11/06 08:37:47;;;;;;;1.63;1.53;;;;;;;10.12;75.14;101227.06;6074119;29;20252;-84
2022/11/06 08:41:12;;;;;;;1.50;1.17;;;;;;;10.32;74.18;101220.06;6078917;29;20240;-79
2022/11/06 08:44:33;;;;;;;8.53;3.03;;;;;;;10.22;74.98;101219.09;6058479;29;20236;-78
2022/11/06 08:47:54;;;;;;;1.00;0.97;;;;;;;10.28;74.68;101230.22;6067019;29;20232;-78
2022/11/06 08:51:15;;;;;;;1.43;1.33;;;;;;;10.47;74.43;101217.94;6079988;29;20264;-77
2022/11/06 08:54:35;;;;;;;1.53;1.43;;;;;;;10.64;73.96;101212.81;6064629;29;20256;-75
2022/11/06 08:57:57;;;;;;;1.17;1.07;;;;;;;10.76;72.59;101211.81;6058508;29;20632;-78
2022/11/06 09:01:18;;;;;;;1.10;0.83;;;;;;;10.99;72.29;101213.41;6062846;29;20241;-81
2022/11/06 09:04:39;;;;;;;3.37;1.90;;;;;;;11.32;71.40;101198.88;6068637;29;20229;-80
2022/11/06 09:08:00;;;;;;;2.03;1.43;;;;;;;11.41;70.46;101186.44;6071476;29;20240;-80
2022/11/06 09:11:21;;;;;;;1.77;1.13;;;;;;;12.39;66.39;101200.00;6081382;29;20681;-76
2022/11/06 09:14:44;;;;;;;1.60;1.50;;;;;;;12.33;66.54;101187.06;6057802;29;20232;-74
2022/11/06 09:18:05;;;;;;;1.40;1.27;;;;;;;11.67;69.67;101196.69;6068220;29;20244;-73
2022/11/06 09:21:26;;;;;;;2.60;1.53;;;;;;;11.47;70.16;101199.38;6078557;29;20240;-73
2022/11/06 09:24:47;;;;;;;2.93;1.40;;;;;;;11.49;70.43;101194.72;6061722;29;20232;-72
2022/11/06 09:28:08;;;;;;;4.13;2.63;;;;;;;11.48;70.35;101201.09;6064699;29;20229;-72
2022/11/06 09:31:30;;;;;;;1.33;0.93;;;;;;;11.34;70.88;101205.00;6067229;29;20240;-73
2022/11/06 09:34:51;;;;;;;3.77;1.10;;;;;;;11.34;71.97;101209.53;6082927;29;20228;-72
2022/11/06 09:38:14;;;;;;;1.33;1.17;;;;;;;11.20;72.18;101206.19;6081431;29;20233;-72
2022/11/06 09:41:51;;;;;;;2.37;1.77;;;;;;;11.20;71.78;101210.75;6091812;29;20248;-75
2022/11/06 09:45:16;;;;;;;1.97;1.20;;;;;;;11.29;71.10;101204.53;6079264;29;20252;-76
2022/11/06 09:48:42;;;;;;;4.17;2.03;;;;;;;11.33;71.69;101207.84;6057613;29;21101;-74
2022/11/06 09:52:10;;;;;;;0.87;0.87;;;;;;;11.10;71.71;101216.06;6077551;29;20268;-73
2022/11/06 09:55:37;;;;;;;4.53;1.80;;;;;;;11.26;72.25;101216.44;6071470;29;20252;-75
2022/11/06 09:59:01;;;;;;;1.10;1.00;;;;;;;11.57;71.02;101206.56;6070267;29;20229;-76
2022/11/06 10:02:29;;;;;;;2.93;1.50;;;;;;;11.37;72.47;101201.19;6074224;29;20570;-73
2022/11/06 10:05:53;;;;;;;1.53;1.27;;;;;;;11.74;70.40;101191.59;6069902;29;20565;-74
2022/11/06 10:09:16;;;;;;;1.60;1.10;;;;;;;13.27;65.62;101175.53;6056584;29;20285;-74
2022/11/06 10:12:53;;;;;;;3.80;1.37;;;;;;;12.72;66.50;101177.97;6056537;29;20266;-73
2022/11/06 10:16:21;;;;;;;2.43;1.30;;;;;;;11.93;69.83;101183.56;6065396;29;20311;-73
2022/11/06 10:19:48;;;;;;;2.47;1.67;;;;;;;11.82;70.86;101183.66;6051910;29;20318;-73
2022/11/06 10:23:18;;;;;;;5.17;2.40;;;;;;;12.13;71.08;101176.34;6060537;29;20240;-75
2022/11/06 10:26:41;;;;;;;30.70;20.40;;;;;;;14.19;68.95;101177.28;6074194;29;20232;-74
2022/11/06 10:30:08;;;;;;;6.00;5.43;;;;;;;12.75;68.11;101172.28;6055681;29;20779;-71
2022/11/06 10:33:43;;;;;;;16.35;13.20;;;;;;;12.51;69.83;101174.56;6062313;29;21228;-69
2022/11/06 10:37:09;;;;;;;24.20;21.53;;;;;;;12.34;70.14;101172.56;6072689;29;20912;-66
2022/11/06 10:40:33;;;;;;;5.07;4.57;;;;;;;12.52;68.60;101161.88;6065913;29;20232;-71
2022/11/06 10:44:00;;;;;;;3.67;2.03;;;;;;;12.14;69.96;101168.09;6058987;29;20867;-77
2022/11/06 10:47:22;;;;;;;1.30;1.20;;;;;;;11.91;70.28;101167.47;6054103;29;22276;-76
2022/11/06 10:50:53;;;;;;;0.80;0.80;;;;;;;12.03;70.82;101170.94;6065521;29;20245;-74
2022/11/06 10:54:28;;;;;;;3.03;2.40;;;;;;;12.29;69.32;101164.00;6045140;29;20262;-77
2022/11/06 10:57:55;;;;;;;0.93;0.87;;;;;;;12.15;70.04;101158.13;6059760;29;20228;-76
2022/11/06 11:01:16;;;;;;;1.23;0.90;;;;;;;12.42;69.39;101147.50;6059120;29;20270;-76
2022/11/06 11:04:37;;;;;;;1.57;1.40;;;;;;;12.71;68.36;101154.63;6036362;29;21286;-75
2022/11/06 11:07:58;;;;;;;5.43;1.53;;;;;;;13.19;66.76;101143.78;6051336;29;20260;-78
2022/11/06 11:11:23;;;;;;;1.23;1.13;;;;;;;14.59;62.73;101123.47;6058813;29;20236;-78
2022/11/06 11:15:05;;;;;;;3.30;1.53;;;;;;;18.49;51.34;101099.97;6047104;29;20240;-80
2022/11/06 11:18:30;;;;;;;1.92;1.83;;;;;;;20.59;45.14;101090.19;6065075;29;20231;-80
2022/11/06 11:21:55;;;;;;;0.80;0.80;;;;;;;20.18;44.65;101089.09;6065868;29;20236;-80
2022/11/06 11:25:25;;;;;;;3.10;0.85;;;;;;;18.09;49.99;101095.59;6068984;29;20775;-76
2022/11/06 11:28:53;;;;;;;2.58;1.20;;;;;;;16.13;55.08;101108.94;6071472;29;20236;-81
2022/11/06 11:32:18;;;;;;;1.90;1.20;;;;;;;18.74;48.64;101103.34;6077021;29;20321;-79
2022/11/06 11:35:40;;;;;;;1.15;1.05;;;;;;;16.09;54.98;101096.69;6073342;29;20509;-81
2022/11/06 11:39:01;;;;;;;1.58;1.13;;;;;;;17.92;51.58;101071.31;6068216;29;20232;-85
2022/11/06 11:42:27;;;;;;;1.90;0.88;;;;;;;18.02;50.64;101085.59;6063138;29;20232;-77
2022/11/06 11:46:05;;;;;;;1.75;0.75;;;;;;;20.68;44.12;101072.59;6082232;29;20236;-80
2022/11/06 11:49:31;;;;;;;1.75;0.82;;;;;;;19.16;47.35;101073.59;6070280;29;20231;-78
2022/11/06 11:52:56;;;;;;;1.33;1.10;;;;;;;20.58;44.81;101061.97;6049163;29;20244;-71
2022/11/06 11:56:21;;;;;;;0.93;0.90;;;;;;;20.89;44.15;101069.81;6060945;29;20788;-70
2022/11/06 11:59:45;;;;;;;1.52;1.17;;;;;;;21.07;43.26;101067.47;6062724;29;20252;-74
2022/11/06 12:03:11;;;;;;;1.42;0.85;;;;;;;19.59;45.68;101080.97;6057440;29;20363;-78
2022/11/06 12:06:34;;;;;;;1.55;1.23;;;;;;;21.47;41.67;101063.94;6079100;29;20561;-78
2022/11/06 12:09:55;;;;;;;2.55;0.60;;;;;;;21.73;41.54;101054.16;6069115;29;20619;-74
2022/11/06 12:13:20;;;;;;;3.13;1.95;;;;;;;21.64;41.39;101058.09;6050891;29;20245;-83
2022/11/06 12:16:42;;;;;;;2.35;0.80;;;;;;;19.72;45.55;101048.34;6073997;29;20856;-78
2022/11/06 12:20:10;;;;;;;2.08;0.82;;;;;;;16.25;54.21;101061.38;6051715;29;21787;-76
2022/11/06 12:23:42;;;;;;;1.75;0.88;;;;;;;15.10;58.58;101061.09;6064720;29;20614;-77
2022/11/06 12:27:09;;;;;;;1.02;1.00;;;;;;;15.15;58.91;101061.47;6091640;29;20244;-77
2022/11/06 12:30:33;;;;;;;3.10;0.80;;;;;;;14.29;61.68;101051.50;6072170;29;21927;-73
2022/11/06 12:33:56;;;;;;;1.50;1.07;;;;;;;14.77;60.63;101044.78;6068345;29;20229;-72
2022/11/06 12:37:23;;;;;;;1.70;0.80;;;;;;;14.09;62.71;101044.50;6062061;29;20236;-78
2022/11/06 12:40:50;;;;;;;4.07;0.90;;;;;;;13.88;63.42;101033.09;6070283;29;20304;-77
2022/11/06 12:44:14;;;;;;;1.07;0.90;;;;;;;14.02;63.38;101018.13;6046166;29;20237;-82
2022/11/06 12:47:46;;;;;;;0.80;0.80;;;;;;;14.47;62.17;101018.06;6080290;29;20236;-78
2022/11/06 12:51:17;;;;;;;1.73;1.10;;;;;;;14.60;62.14;100999.53;6081167;29;20741;-86
2022/11/06 12:54:52;;;;;;;1.20;0.90;;;;;;;14.63;62.01;101010.03;6060972;29;20237;-82
2022/11/06 12:58:42;;;;;;;1.93;1.00;;;;;;;14.69;61.92;101004.84;6072540;29;20257;-80
2022/11/06 13:02:19;;;;;;;0.97;0.80;;;;;;;14.87;60.93;100991.22;6084395;29;20270;-81
2022/11/06 13:05:47;;;;;;;1.77;1.50;;;;;;;14.63;61.77;100994.63;6093592;29;20221;-80
2022/11/06 13:09:14;;;;;;;0.87;0.80;;;;;;;14.36;62.23;100992.03;6076234;29;20265;-76
2022/11/06 13:12:46;;;;;;;2.37;1.13;;;;;;;14.64;61.21;100987.34;6073357;29;20241;-75
2022/11/06 13:16:21;;;;;;;2.00;1.00;;;;;;;15.18;60.40;100982.41;6079569;29;20241;-78
2022/11/06 13:19:50;;;;;;;1.13;0.97;;;;;;;14.41;61.80;100977.00;6054065;29;20237;-81
2022/11/06 13:23:16;;;;;;;0.83;0.83;;;;;;;14.19;62.21;100973.91;6062682;29;20232;-83
2022/11/06 13:26:40;;;;;;;1.67;1.10;;;;;;;13.97;63.10;100974.41;6071948;29;20240;-77
2022/11/06 13:30:06;;;;;;;1.47;0.90;;;;;;;14.26;61.78;100978.56;6068009;29;21753;-84
2022/11/06 13:33:34;;;;;;;2.60;1.63;;;;;;;15.01;59.99;100960.75;6059310;29;20268;-81
2022/11/06 13:36:56;;;;;;;1.83;0.63;;;;;;;14.58;60.91;100969.00;6075008;29;20231;-76
2022/11/06 13:40:30;;;;;;;1.17;0.83;;;;;;;14.62;60.79;100962.22;6065625;29;20236;-80
2022/11/06 13:43:56;;;;;;;2.60;0.97;;;;;;;14.06;62.79;100955.31;6067647;29;20327;-71
2022/11/06 13:47:26;;;;;;;1.27;1.27;;;;;;;14.14;62.97;100944.53;6047780;29;20251;-78
2022/11/06 13:50:56;;;;;;;1.23;1.10;;;;;;;13.78;64.73;100944.75;6069403;29;20236;-80
2022/11/06 13:54:30;;;;;;;1.73;1.10;;;;;;;13.77;64.79;100937.63;6057047;29;20311;-73
2022/11/06 13:58:16;;;;;;;1.37;0.87;;;;;;;13.65;65.61;100934.28;6052191;29;20279;-81
2022/11/06 14:01:53;;;;;;;2.10;1.50;;;;;;;13.45;65.76;100930.91;6070544;29;20229;-81
2022/11/06 14:05:42;;;;;;;1.17;0.93;;;;;;;13.42;65.91;100914.94;6056797;29;20230;-75
2022/11/06 14:09:09;;;;;;;1.90;1.40;;;;;;;13.33;66.30;100917.72;6068513;29;20268;-77
2022/11/06 14:12:30;;;;;;;1.57;1.47;;;;;;;13.29;66.32;100913.59;6073994;29;20253;-72
2022/11/06 14:16:00;;;;;;;2.10;1.30;;;;;;;13.10;66.46;100921.84;6084480;29;20229;-74
2022/11/06 14:19:25;;;;;;;1.40;1.30;;;;;;;13.00;67.21;100912.88;6076173;29;20225;-73
2022/11/06 14:22:46;;;;;;;1.87;1.07;;;;;;;13.01;67.17;100918.16;6080291;29;20689;-73
2022/11/06 14:26:11;;;;;;;1.57;1.30;;;;;;;13.05;67.69;100922.31;6083675;29;20530;-75
2022/11/06 14:30:04;;;;;;;2.67;2.33;;;;;;;13.03;67.45;100923.41;6086140;29;20500;-77
2022/11/06 14:34:00;;;;;;;4.10;1.17;;;;;;;13.04;67.69;100901.63;6079247;29;20240;-77
2022/11/06 14:37:46;;;;;;;1.47;1.33;;;;;;;12.82;67.90;100892.06;6093629;29;20225;-74
2022/11/06 14:41:49;;;;;;;1.30;1.00;;;;;;;12.78;68.76;100895.22;6084268;29;20566;-72
2022/11/06 14:45:17;;;;;;;1.30;1.30;;;;;;;12.83;68.19;100901.88;6081225;29;20508;-73
2022/11/06 14:48:42;;;;;;;1.77;1.47;;;;;;;12.65;69.68;100882.03;6081941;29;20323;-72
2022/11/06 14:52:08;;;;;;;2.33;1.50;;;;;;;12.57;69.36;100889.19;6084992;29;20494;-73
2022/11/06 14:55:34;;;;;;;1.17;1.07;;;;;;;12.56;69.60;100888.31;6080828;29;20228;-77
2022/11/06 14:58:57;;;;;;;3.10;2.00;;;;;;;12.46;70.61;100884.81;6081200;29;20238;-74
2022/11/06 15:02:23;;;;;;;2.43;1.53;;;;;;;12.39;70.76;100880.97;6091239;29;20252;-75
2022/11/06 15:05:44;;;;;;;3.53;2.40;;;;;;;12.46;70.45;100881.25;6093745;29;20606;-76
2022/11/06 15:09:11;;;;;;;1.33;1.23;;;;;;;12.35;70.59;100863.34;6081665;29;20236;-81
2022/11/06 15:13:05;;;;;;;4.00;1.77;;;;;;;12.34;71.65;100875.19;6086244;29;20241;-76
2022/11/06 15:16:29;;;;;;;2.77;1.07;;;;;;;12.20;71.70;100881.06;6090505;29;20232;-75
2022/11/06 15:20:01;;;;;;;1.53;1.30;;;;;;;12.21;71.51;100885.44;6059563;29;20229;-75
2022/11/06 15:23:24;;;;;;;1.13;1.03;;;;;;;12.10;71.81;100877.50;6068571;29;20630;-76
2022/11/06 15:26:50;;;;;;;1.43;1.30;;;;;;;12.12;71.48;100875.50;6074976;29;20240;-73
2022/11/06 15:30:16;;;;;;;3.40;1.97;;;;;;;12.13;70.96;100877.22;6082809;29;20331;-73
2022/11/06 15:33:44;;;;;;;1.40;1.30;;;;;;;12.09;70.90;100872.25;6075643;29;20240;-72
2022/11/06 15:37:11;;;;;;;2.43;1.37;;;;;;;11.99;71.80;100875.81;6082129;29;20240;-76
2022/11/06 15:40:35;;;;;;;2.07;1.30;;;;;;;11.99;71.32;100883.09;6060194;29;20221;-72
2022/11/06 15:43:56;;;;;;;1.67;1.57;;;;;;;11.95;71.97;100876.28;6070850;29;20232;-72
2022/11/06 15:47:21;;;;;;;1.63;1.37;;;;;;;11.91;71.80;100872.16;6073871;29;20670;-72
2022/11/06 15:50:43;;;;;;;2.40;1.40;;;;;;;11.85;72.39;100888.94;6076466;29;20323;-75
2022/11/06 15:54:05;;;;;;;1.80;1.20;;;;;;;11.77;72.16;100886.97;6048143;29;20240;-71
2022/11/06 15:57:29;;;;;;;1.40;1.30;;;;;;;11.66;72.51;100883.53;6070468;29;20236;-75
2022/11/06 16:00:49;;;;;;;1.20;1.20;;;;;;;11.73;71.80;100882.84;6062548;29;20248;-75
2022/11/06 16:04:14;;;;;;;1.83;1.33;;;;;;;11.77;71.32;100884.25;6065215;29;20232;-74
2022/11/06 16:07:36;;;;;;;1.47;1.33;;;;;;;11.74;71.69;100883.69;6076820;29;20233;-72
2022/11/06 16:11:00;;;;;;;3.17;1.20;;;;;;;11.67;71.34;100880.72;6079677;29;20511;-72